You are not logged in, Click here to log in
天津濱海國際機場TSN / ZBTJ 中國天津市东丽区机场大道
ICAO: ZBTJ Country: 中國天津市东丽区机场大道
Latitude: 39.1304 Longitude: 117.359
Total Arrivals: 5 Total Departures: 5
Latest Arrival: CA188 (RCSS-ZBTJ)CHUANYI. Lin Latest Departure: CA187 (ZBTJ-RCSS)CHUANYI. Lin
Scenery:
METAR : ZBTJ 110500Z VRB01MPS 3000 HZ NSC 28/22 Q1007 NOSIG

天津濱海國際機場TSN